Time;durP1;ratioP1;P1;durP2;ratioP2;P2;SDS_P1;SDS_P2;PMS_P1;PMS_P2;Temp;Humidity;BMP_temperature;BMP_pressure;BME280_temperature;BME280_humidity;BME280_pressure;Samples;Min_cycle;Max_cycle;Signal;HPM_P1;HPM_P2
2022/06/18 00:00:12;;;;;;;3.20;2.78;;;;;;;18.65;79.73;101610.97;1052361;28;20032;-78
2022/06/18 00:00:44;;;;;;;2.75;2.50;;;;;;;18.27;80.59;101619.03;1053268;28;20098;-78
2022/06/18 00:01:16;;;;;;;6.45;3.33;;;;;;;18.38;80.35;101608.16;1053614;28;20063;-78
2022/06/18 00:01:47;;;;;;;5.03;2.97;;;;;;;18.30;80.85;101615.84;1059858;27;20054;-79
2022/06/18 00:02:20;;;;;;;4.50;3.20;;;;;;;18.04;81.17;101612.78;1051856;28;20036;-78
2022/06/18 00:02:52;;;;;;;4.22;2.92;;;;;;;18.12;81.34;101617.78;1052841;28;20032;-79
2022/06/18 00:03:25;;;;;;;3.25;2.92;;;;;;;18.15;81.22;101617.28;1054631;28;20048;-78
2022/06/18 00:03:57;;;;;;;5.82;3.38;;;;;;;18.19;81.05;101618.41;1053174;27;20111;-78
2022/06/18 00:04:29;;;;;;;4.55;3.67;;;;;;;18.18;81.42;101616.78;1057314;27;20088;-78
2022/06/18 00:05:01;;;;;;;5.22;2.95;;;;;;;18.13;81.14;101614.00;1047851;28;20043;-78
2022/06/18 00:05:34;;;;;;;4.00;2.75;;;;;;;18.13;81.56;101611.31;1048760;28;20551;-78
2022/06/18 00:06:08;;;;;;;8.55;3.70;;;;;;;18.00;81.22;101608.94;1051704;28;20121;-78
2022/06/18 00:06:58;;;;;;;4.85;2.78;;;;;;;18.15;81.27;101611.88;1056256;28;20051;-79
2022/06/18 00:07:31;;;;;;;4.25;2.88;;;;;;;18.04;81.46;101604.69;1055850;28;20043;-78
2022/06/18 00:08:04;;;;;;;3.63;3.33;;;;;;;18.16;81.09;101613.50;1059756;27;20109;-79
2022/06/18 00:08:36;;;;;;;10.02;3.03;;;;;;;18.20;80.58;101608.44;1054505;28;20581;-78
2022/06/18 00:09:11;;;;;;;6.72;3.10;;;;;;;18.26;80.96;101602.03;1056699;27;20038;-78
2022/06/18 00:09:45;;;;;;;6.97;3.20;;;;;;;17.99;80.99;101607.31;1053371;28;20066;-78
2022/06/18 00:10:20;;;;;;;6.47;2.88;;;;;;;18.09;81.80;101606.69;1051718;28;20409;-78
2022/06/18 00:13:39;;;;;;;5.03;3.35;;;;;;;18.23;81.59;101608.75;1049345;28;20048;-78
2022/06/18 00:13:42;;;;;;;5.13;3.15;;;;;;;18.19;81.52;101604.94;1051344;28;20040;-78
2022/06/18 00:14:13;;;;;;;3.75;3.03;;;;;;;18.17;81.11;101604.38;1055112;28;20113;-78
2022/06/18 00:14:45;;;;;;;3.60;3.30;;;;;;;18.20;80.56;101601.16;1059945;27;20039;-78
2022/06/18 00:15:23;;;;;;;3.78;3.22;;;;;;;18.17;80.95;101590.88;1052301;28;20496;-78
2022/06/18 00:15:56;;;;;;;7.45;2.92;;;;;;;18.00;80.73;101600.88;1051399;28;20047;-79
2022/06/18 00:16:31;;;;;;;3.90;3.28;;;;;;;18.19;80.88;101596.84;1048520;28;20076;-78
2022/06/18 00:17:17;;;;;;;6.63;4.10;;;;;;;17.98;81.21;101611.06;1049764;28;20502;-78
2022/06/18 00:17:50;;;;;;;4.80;3.05;;;;;;;18.07;81.13;101598.00;1050468;28;20047;-78
2022/06/18 00:18:22;;;;;;;8.30;3.22;;;;;;;18.13;80.83;101602.41;1055088;28;20523;-78
2022/06/18 00:18:53;;;;;;;3.20;3.00;;;;;;;18.17;80.96;101601.66;1051910;28;20088;-78
2022/06/18 00:19:27;;;;;;;3.38;3.08;;;;;;;18.19;80.35;101596.84;1054475;27;20082;-79
2022/06/18 00:19:59;;;;;;;6.25;3.22;;;;;;;18.01;80.86;101604.38;1061171;27;20185;-78
2022/06/18 00:20:34;;;;;;;8.10;3.28;;;;;;;18.04;81.58;101598.47;1062623;27;20046;-78
2022/06/18 00:21:07;;;;;;;5.53;3.28;;;;;;;18.10;81.41;101598.34;1059786;27;20035;-78
2022/06/18 00:21:39;;;;;;;9.13;3.50;;;;;;;17.98;81.20;101600.28;1052519;28;20078;-78
2022/06/18 00:22:15;;;;;;;6.15;3.10;;;;;;;18.08;80.83;101589.69;1052213;28;20039;-78
2022/06/18 00:22:50;;;;;;;8.18;3.63;;;;;;;18.22;80.35;101590.94;1051525;28;20115;-78
2022/06/18 00:23:22;;;;;;;6.35;3.38;;;;;;;18.19;80.22;101596.03;1051912;28;20422;-78
2022/06/18 00:23:53;;;;;;;3.28;2.80;;;;;;;18.06;80.38;101588.28;1051804;28;20036;-78
2022/06/18 00:24:25;;;;;;;6.40;3.30;;;;;;;18.11;80.17;101589.19;1053009;28;20052;-78
2022/06/18 00:24:57;;;;;;;5.63;3.00;;;;;;;18.15;80.65;101589.50;1052931;27;20036;-78
2022/06/18 00:25:35;;;;;;;6.85;3.22;;;;;;;18.14;80.76;101599.47;1064263;27;20042;-78
2022/06/18 00:26:06;;;;;;;3.95;3.58;;;;;;;17.96;80.30;101594.34;1060300;27;20035;-78
2022/06/18 00:26:38;;;;;;;5.32;3.50;;;;;;;18.05;80.29;101592.84;1057325;27;20464;-78
2022/06/18 00:27:16;;;;;;;14.60;3.85;;;;;;;18.19;80.17;101590.63;1056369;28;20118;-78
2022/06/18 00:27:49;;;;;;;4.47;3.58;;;;;;;18.02;80.50;101596.03;1049596;28;20052;-78
2022/06/18 00:28:23;;;;;;;5.00;3.15;;;;;;;17.91;80.75;101597.78;1053211;28;20044;-78
2022/06/18 00:28:55;;;;;;;5.55;3.17;;;;;;;17.96;80.80;101593.53;1048428;28;20145;-78
2022/06/18 00:29:27;;;;;;;6.40;3.70;;;;;;;17.92;81.41;101596.72;1056089;28;20629;-78
2022/06/18 00:29:58;;;;;;;5.47;3.30;;;;;;;17.96;81.33;101597.03;1056244;28;20040;-78
2022/06/18 00:30:30;;;;;;;4.35;2.67;;;;;;;17.82;81.27;101593.88;1056648;27;20039;-79
2022/06/18 00:31:02;;;;;;;4.05;2.80;;;;;;;17.83;81.54;101592.00;1060485;27;20051;-78
2022/06/18 00:31:34;;;;;;;4.20;3.67;;;;;;;17.83;81.59;101592.81;1057061;28;20043;-78
2022/06/18 00:32:07;;;;;;;4.07;3.63;;;;;;;17.78;81.59;101594.59;1059760;27;20039;-78
2022/06/18 00:32:38;;;;;;;6.10;4.05;;;;;;;17.83;81.71;101600.06;1057202;28;20035;-79
2022/06/18 00:33:10;;;;;;;4.72;3.55;;;;;;;17.95;81.18;101590.00;1052698;28;20054;-79
2022/06/18 00:33:41;;;;;;;4.25;2.88;;;;;;;18.06;81.14;101594.47;1056344;27;20047;-79
2022/06/18 00:34:14;;;;;;;4.25;3.60;;;;;;;17.79;81.11;101588.94;1057920;27;20039;-80
2022/06/18 00:34:46;;;;;;;4.30;3.22;;;;;;;17.95;81.47;101595.41;1052676;28;20044;-79
2022/06/18 00:35:18;;;;;;;7.13;3.58;;;;;;;18.07;80.92;101587.19;1055859;28;20039;-79
2022/06/18 00:35:52;;;;;;;7.30;3.55;;;;;;;18.23;79.62;101589.88;1051388;28;20055;-79
2022/06/18 00:36:24;;;;;;;5.53;3.50;;;;;;;18.25;79.53;101583.41;1048645;28;20107;-79
2022/06/18 00:36:57;;;;;;;5.40;3.45;;;;;;;18.06;79.97;101586.38;1052918;28;20051;-79
2022/06/18 00:37:29;;;;;;;4.32;3.25;;;;;;;18.19;79.94;101588.75;1052835;28;20581;-79
2022/06/18 00:38:03;;;;;;;6.03;4.05;;;;;;;17.81;81.00;101594.13;1052905;28;20040;-79
2022/06/18 00:38:38;;;;;;;5.88;3.60;;;;;;;18.08;80.83;101589.69;1053144;28;20040;-79
2022/06/18 00:39:16;;;;;;;5.63;3.50;;;;;;;18.05;80.57;101592.03;1057554;27;20039;-79
2022/06/18 00:39:51;;;;;;;5.05;3.20;;;;;;;17.92;81.31;101595.91;1058472;27;20040;-79
2022/06/18 00:40:27;;;;;;;6.95;3.75;;;;;;;17.95;81.46;101599.97;1056029;28;20533;-79
2022/06/18 00:40:59;;;;;;;7.15;3.53;;;;;;;17.79;81.37;101596.22;1056972;28;20651;-79
2022/06/18 00:41:32;;;;;;;5.68;3.78;;;;;;;17.92;81.31;101595.91;1057567;27;20032;-79
2022/06/18 00:42:06;;;;;;;6.32;3.40;;;;;;;17.69;81.56;101590.69;1055628;27;20078;-79
2022/06/18 00:42:39;;;;;;;4.95;3.58;;;;;;;17.81;81.62;101599.50;1060369;27;20088;-79
2022/06/18 00:43:25;;;;;;;5.55;3.35;;;;;;;17.75;81.97;101590.50;1055834;28;20042;-79
2022/06/18 00:43:59;;;;;;;3.75;3.47;;;;;;;17.94;81.75;101587.56;1054290;27;20040;-79
2022/06/18 00:44:39;;;;;;;6.85;3.47;;;;;;;17.96;81.38;101594.34;1055713;28;20035;-79
2022/06/18 00:45:18;;;;;;;8.85;3.70;;;;;;;18.04;81.26;101587.69;1051989;28;20032;-79
2022/06/18 00:45:53;;;;;;;3.63;3.33;;;;;;;18.04;81.14;101583.13;1050480;28;20041;-79
2022/06/18 00:46:37;;;;;;;5.47;3.20;;;;;;;17.78;81.56;101589.19;1053854;28;20081;-79
2022/06/18 00:47:28;;;;;;;5.93;3.72;;;;;;;17.81;81.55;101599.50;1055815;28;20039;-79
2022/06/18 00:48:25;;;;;;;5.10;3.45;;;;;;;17.86;81.49;101581.53;1056480;27;20047;-79
2022/06/18 00:49:15;;;;;;;4.55;3.17;;;;;;;17.96;81.67;101591.63;1063999;27;20035;-79
2022/06/18 00:50:12;;;;;;;3.75;3.35;;;;;;;17.70;81.81;101586.91;1061340;27;20133;-79
2022/06/18 00:50:57;;;;;;;9.38;3.65;;;;;;;17.70;82.33;101586.91;1063119;27;20080;-79
2022/06/18 00:51:49;;;;;;;5.53;3.40;;;;;;;17.68;81.94;101594.44;1061419;27;20031;-79
2022/06/18 00:52:48;;;;;;;14.18;4.10;;;;;;;17.56;82.50;101594.50;1062837;27;20039;-79
2022/06/18 00:53:24;;;;;;;5.45;3.58;;;;;;;17.66;82.78;101601.91;1059606;27;20043;-79
2022/06/18 00:54:01;;;;;;;5.00;3.30;;;;;;;17.75;82.51;101597.78;1056437;28;20046;-79
2022/06/18 00:55:18;;;;;;;6.93;3.33;;;;;;;17.63;82.85;101591.63;1051765;28;20489;-79
2022/06/18 00:56:28;;;;;;;3.85;3.50;;;;;;;17.59;82.85;101592.13;1049949;28;20032;-79
2022/06/18 00:57:07;;;;;;;4.57;3.25;;;;;;;17.77;82.58;101582.16;1048737;28;20043;-79
2022/06/18 00:57:58;;;;;;;10.60;5.28;;;;;;;17.88;82.26;101579.41;1046118;28;20131;-79
2022/06/18 00:58:35;;;;;;;5.18;3.40;;;;;;;17.77;82.26;101588.38;1053965;28;20036;-79
2022/06/18 00:59:13;;;;;;;6.40;3.65;;;;;;;17.88;81.75;101584.78;1051853;28;20044;-79
2022/06/18 00:59:55;;;;;;;7.25;3.25;;;;;;;17.83;81.32;101578.53;1051782;28;20513;-79
2022/06/18 01:00:34;;;;;;;5.63;3.67;;;;;;;17.76;81.80;101581.34;1059483;27;20481;-79
2022/06/18 01:01:22;;;;;;;7.90;3.38;;;;;;;17.97;81.44;101577.09;1055712;28;20045;-79
2022/06/18 01:01:55;;;;;;;13.60;4.10;;;;;;;17.97;80.98;101579.78;1054968;28;20526;-79
2022/06/18 01:02:30;;;;;;;4.07;3.55;;;;;;;17.76;81.82;101580.53;1056004;28;20493;-79
2022/06/18 01:03:03;;;;;;;6.13;3.30;;;;;;;17.94;81.46;101576.78;1059720;27;20051;-79
2022/06/18 01:03:36;;;;;;;5.93;3.70;;;;;;;18.17;80.77;101566.59;1053506;28;20036;-79
2022/06/18 01:04:31;;;;;;;3.60;3.30;;;;;;;18.16;80.37;101569.56;1057878;27;20027;-79
2022/06/18 01:05:26;;;;;;;6.88;3.70;;;;;;;17.90;80.79;101582.66;1051605;28;20452;-79
2022/06/18 01:06:00;;;;;;;4.80;4.03;;;;;;;17.73;82.27;101575.66;1051722;28;20055;-79
2022/06/18 01:06:33;;;;;;;5.50;3.40;;;;;;;17.72;82.44;101582.09;1047546;28;20050;-78
2022/06/18 01:07:12;;;;;;;10.32;3.63;;;;;;;17.79;82.59;101583.56;1045037;28;20044;-78
2022/06/18 01:07:48;;;;;;;4.30;3.53;;;;;;;17.75;82.62;101581.59;1045472;28;20033;-78
2022/06/18 01:08:22;;;;;;;4.20;3.40;;;;;;;17.67;83.18;101584.69;1047519;28;20135;-78
2022/06/18 01:09:05;;;;;;;4.07;3.67;;;;;;;17.49;83.31;101583.84;1048249;28;20036;-78
2022/06/18 01:09:39;;;;;;;5.40;3.63;;;;;;;17.42;83.46;101580.50;1045050;28;20506;-79
2022/06/18 01:10:20;;;;;;;4.15;3.50;;;;;;;17.59;83.67;101581.34;1044482;28;20036;-78
2022/06/18 01:10:58;;;;;;;4.43;4.03;;;;;;;17.49;83.93;101575.78;1051419;28;20032;-78
2022/06/18 01:11:32;;;;;;;4.38;3.95;;;;;;;17.47;84.23;101574.38;1052169;28;20040;-78
2022/06/18 01:12:04;;;;;;;4.18;3.80;;;;;;;17.63;83.75;101576.28;1051502;28;20393;-78
2022/06/18 01:12:36;;;;;;;3.63;3.30;;;;;;;17.49;83.72;101575.78;1051749;28;20076;-78
2022/06/18 01:13:10;;;;;;;5.10;3.58;;;;;;;17.25;83.91;101572.41;1053055;28;20548;-78
2022/06/18 01:13:44;;;;;;;8.07;4.30;;;;;;;17.32;84.05;101574.97;1054601;28;20036;-78
2022/06/18 01:14:17;;;;;;;4.35;3.47;;;;;;;17.47;84.28;101571.69;1056705;27;20048;-78
2022/06/18 01:14:54;;;;;;;6.38;3.55;;;;;;;17.56;83.77;101576.44;1055859;28;20397;-78
2022/06/18 01:15:26;;;;;;;8.75;3.83;;;;;;;17.36;84.02;101570.72;1055658;28;20549;-78
2022/06/18 01:15:58;;;;;;;5.95;3.78;;;;;;;17.46;84.36;101576.25;1050062;28;20040;-78
2022/06/18 01:16:32;;;;;;;6.30;3.60;;;;;;;17.45;84.48;101574.63;1047245;28;20048;-78
2022/06/18 01:17:06;;;;;;;4.57;3.45;;;;;;;17.44;84.56;101578.38;1047526;28;20041;-78
2022/06/18 01:17:39;;;;;;;9.75;4.22;;;;;;;17.46;84.51;101570.06;1050164;28;20036;-78
2022/06/18 01:18:12;;;;;;;6.78;3.20;;;;;;;17.58;84.64;101573.50;1049926;28;20043;-78
2022/06/18 01:18:46;;;;;;;8.88;3.15;;;;;;;17.58;84.13;101566.25;1048983;28;20441;-78
2022/06/18 01:19:29;;;;;;;5.82;3.75;;;;;;;17.58;83.36;101573.50;1049281;28;20041;-78
2022/06/18 01:20:04;;;;;;;3.42;3.13;;;;;;;17.43;83.75;101560.59;1058080;27;20040;-79
2022/06/18 01:21:05;;;;;;;5.40;3.80;;;;;;;17.43;83.81;101560.59;1054269;28;20152;-78
2022/06/18 01:21:47;;;;;;;4.32;3.42;;;;;;;17.54;84.02;101562.41;1049688;28;20040;-78
2022/06/18 01:22:55;;;;;;;4.35;3.28;;;;;;;17.37;84.15;101566.97;1047622;28;20453;-78
2022/06/18 01:23:49;;;;;;;5.93;4.20;;;;;;;17.49;83.58;101559.59;1051413;28;20461;-78
2022/06/18 01:24:24;;;;;;;5.07;4.10;;;;;;;17.69;83.12;101563.72;1055864;28;20051;-78
2022/06/18 01:24:56;;;;;;;10.20;3.80;;;;;;;17.61;82.86;101557.66;1051449;28;20032;-78
2022/06/18 01:25:29;;;;;;;8.73;4.18;;;;;;;17.48;83.10;101555.28;1056171;28;20513;-78
2022/06/18 01:26:02;;;;;;;8.82;4.38;;;;;;;17.61;82.88;101560.38;1052727;28;20037;-78
2022/06/18 01:26:35;;;;;;;5.18;3.55;;;;;;;17.69;82.82;101552.94;1052739;28;20051;-78
2022/06/18 01:27:10;;;;;;;5.07;4.68;;;;;;;17.84;82.00;101550.50;1055072;28;20568;-78
2022/06/18 01:27:41;;;;;;;4.95;4.45;;;;;;;17.90;81.44;101550.31;1052903;28;20177;-78
2022/06/18 01:28:24;;;;;;;3.88;3.33;;;;;;;17.85;81.76;101552.94;1053985;28;20145;-78
2022/06/18 01:28:56;;;;;;;9.25;4.43;;;;;;;17.83;81.68;101548.88;1053099;28;20160;-78
2022/06/18 01:29:28;;;;;;;5.38;3.58;;;;;;;17.87;81.53;101556.22;1049658;28;20037;-78
2022/06/18 01:30:07;;;;;;;5.50;3.72;;;;;;;17.69;81.69;101552.94;1051828;28;20165;-78
2022/06/18 01:30:41;;;;;;;7.47;3.90;;;;;;;17.68;82.30;101556.72;1051406;28;20064;-78
2022/06/18 01:31:17;;;;;;;4.78;3.80;;;;;;;17.77;81.92;101550.66;1051462;28;20055;-78
2022/06/18 01:31:51;;;;;;;7.28;3.80;;;;;;;17.73;82.18;101549.50;1050028;28;20040;-78
2022/06/18 01:32:24;;;;;;;4.82;3.50;;;;;;;17.75;81.99;101547.38;1050938;28;20174;-78
2022/06/18 01:32:56;;;;;;;4.60;3.70;;;;;;;17.64;82.35;101550.16;1051494;28;20434;-78
2022/06/18 01:33:31;;;;;;;3.53;3.20;;;;;;;17.21;83.38;101554.28;1055543;28;20050;-78
2022/06/18 01:34:04;;;;;;;8.40;4.05;;;;;;;17.35;83.83;101557.50;1056073;28;20053;-78
2022/06/18 01:34:38;;;;;;;5.13;4.28;;;;;;;17.24;83.83;101551.09;1052825;28;20489;-78
2022/06/18 01:35:11;;;;;;;7.07;4.20;;;;;;;17.29;84.69;101559.28;1049558;28;20055;-78
2022/06/18 01:35:57;;;;;;;6.28;3.58;;;;;;;17.29;84.40;101560.09;1052194;28;20552;-78
2022/06/18 01:36:33;;;;;;;5.25;3.72;;;;;;;17.52;83.68;101552.91;1054819;28;20517;-78
2022/06/18 01:37:06;;;;;;;3.92;3.60;;;;;;;17.49;83.74;101548.03;1047778;28;20036;-78
2022/06/18 01:37:38;;;;;;;10.73;4.47;;;;;;;17.31;83.16;101551.78;1047219;28;20070;-78
2022/06/18 01:38:24;;;;;;;5.88;3.47;;;;;;;17.45;83.31;101550.38;1051631;28;20036;-78
2022/06/18 01:38:56;;;;;;;9.45;4.60;;;;;;;17.37;83.64;101548.09;1045632;28;20047;-78
2022/06/18 01:39:31;;;;;;;4.97;3.95;;;;;;;17.32;83.59;101553.41;1041671;28;20042;-78
2022/06/18 01:40:04;;;;;;;14.05;3.85;;;;;;;17.37;83.80;101550.81;1040913;28;20072;-78
2022/06/18 01:40:49;;;;;;;3.95;3.60;;;;;;;17.15;84.12;101553.38;1044656;28;20064;-78
2022/06/18 01:42:26;;;;;;;4.38;3.97;;;;;;;17.39;84.50;101548.69;1056260;28;20157;-78
2022/06/18 01:42:59;;;;;;;7.63;4.72;;;;;;;17.14;84.39;101546.38;1047321;28;20142;-78
2022/06/18 01:43:31;;;;;;;4.75;4.05;;;;;;;17.17;84.78;101553.94;1050897;28;20044;-78
2022/06/18 01:44:08;;;;;;;6.18;4.25;;;;;;;17.10;84.71;101539.03;1048768;28;20072;-78
2022/06/18 01:44:54;;;;;;;6.13;3.63;;;;;;;17.14;84.96;101556.31;1053337;28;20044;-78
2022/06/18 01:45:35;;;;;;;4.55;3.92;;;;;;;17.15;84.96;101549.88;1053957;28;20517;-78
2022/06/18 01:46:26;;;;;;;6.05;3.88;;;;;;;17.05;85.48;101555.91;1055635;28;20059;-78
2022/06/18 01:47:06;;;;;;;7.07;3.60;;;;;;;17.06;85.26;101548.63;1044317;28;20068;-78
2022/06/18 01:48:05;;;;;;;;;;;;;;;17.12;85.61;101555.75;1051678;28;20402;-78
2022/06/18 01:48:38;;;;;;;6.18;3.97;;;;;;;17.28;85.12;101546.88;1044963;28;19932;-78
2022/06/18 01:49:13;;;;;;;7.47;4.45;;;;;;;17.14;85.31;101540.16;1051522;27;20036;-78
2022/06/18 01:50:07;;;;;;;5.35;3.92;;;;;;;16.96;85.68;101544.69;1051462;28;20528;-78
2022/06/18 01:50:43;;;;;;;4.70;3.83;;;;;;;17.17;85.60;101545.06;1051888;28;20099;-78
2022/06/18 01:51:19;;;;;;;4.55;3.78;;;;;;;17.04;85.40;101542.69;1051771;28;20055;-78
2022/06/18 01:51:54;;;;;;;9.35;4.35;;;;;;;17.22;85.43;101547.84;1056143;28;20043;-78
2022/06/18 01:52:37;;;;;;;5.95;3.75;;;;;;;17.37;85.01;101545.41;1047385;28;20074;-78
2022/06/18 01:53:38;;;;;;;16.88;5.88;;;;;;;17.53;83.91;101550.00;1040592;28;20044;-78
2022/06/18 01:54:13;;;;;;;46.05;6.57;;;;;;;17.57;83.48;101551.13;1038087;28;20453;-78
2022/06/18 01:54:48;;;;;;;77.13;10.77;;;;;;;17.42;83.47;101553.56;1048571;28;20100;-78
2022/06/18 01:55:25;;;;;;;93.43;13.27;;;;;;;17.34;83.85;101545.09;1051656;28;20040;-78
2022/06/18 01:56:05;;;;;;;96.07;10.75;;;;;;;17.30;84.13;101550.97;1054038;28;20496;-78
2022/06/18 01:56:46;;;;;;;183.60;21.67;;;;;;;17.39;84.20;101545.97;1059207;28;20050;-78
2022/06/18 01:57:26;;;;;;;113.40;17.52;;;;;;;17.21;84.77;101546.19;1051178;28;20043;-78
2022/06/18 01:58:07;;;;;;;106.35;14.63;;;;;;;17.14;85.36;101556.31;1047329;28;20036;-78
2022/06/18 01:58:49;;;;;;;93.30;13.43;;;;;;;17.16;85.57;101549.63;1051636;28;20036;-78
2022/06/18 01:59:32;;;;;;;108.40;16.02;;;;;;;17.35;84.62;101550.22;1047566;28;20079;-78
2022/06/18 02:00:12;;;;;;;103.45;15.13;;;;;;;17.37;84.41;101545.41;1043440;28;20059;-78
2022/06/18 02:00:57;;;;;;;45.88;9.82;;;;;;;17.25;84.27;101542.78;1043716;28;20126;-78
2022/06/18 02:01:31;;;;;;;25.75;6.78;;;;;;;17.12;84.80;101543.09;1047571;28;20052;-78
2022/06/18 02:02:03;;;;;;;31.17;7.95;;;;;;;17.19;84.95;101548.31;1047483;28;20076;-78
2022/06/18 02:02:35;;;;;;;50.05;8.68;;;;;;;17.22;85.07;101554.03;1044902;28;20071;-78
2022/06/18 02:03:08;;;;;;;36.85;7.15;;;;;;;17.25;84.78;101547.34;1046176;28;20581;-78
2022/06/18 02:03:40;;;;;;;50.90;7.35;;;;;;;17.26;84.39;101549.81;1043151;28;20052;-78
2022/06/18 02:04:14;;;;;;;57.70;8.55;;;;;;;17.25;84.76;101542.78;1048372;28;20518;-78
2022/06/18 02:04:51;;;;;;;33.03;7.70;;;;;;;17.26;84.22;101546.31;1049271;28;20041;-78
2022/06/18 02:05:23;;;;;;;22.00;7.03;;;;;;;17.28;84.36;101541.50;1050422;28;20045;-78
2022/06/18 02:05:55;;;;;;;18.60;5.18;;;;;;;17.29;84.37;101543.94;1053123;28;20044;-78
2022/06/18 02:06:28;;;;;;;19.70;4.97;;;;;;;17.16;84.60;101538.03;1049590;28;20041;-78
2022/06/18 02:07:01;;;;;;;28.48;6.47;;;;;;;17.14;85.28;101542.84;1052515;28;20044;-78
2022/06/18 02:07:32;;;;;;;30.63;5.60;;;;;;;17.27;85.09;101539.88;1051257;28;20150;-78
2022/06/18 02:08:07;;;;;;;14.88;6.38;;;;;;;17.16;85.53;101538.03;1049277;28;20040;-78
2022/06/18 02:08:40;;;;;;;8.73;4.63;;;;;;;17.24;85.04;101535.75;1050004;28;20058;-78
2022/06/18 02:09:25;;;;;;;14.40;4.65;;;;;;;16.96;85.09;101533.91;1048734;28;20078;-78
2022/06/18 02:10:02;;;;;;;7.28;4.72;;;;;;;17.07;85.34;101534.94;1050689;28;20036;-78
2022/06/18 02:10:54;;;;;;;11.43;3.95;;;;;;;17.16;85.35;101530.78;1049776;28;20051;-78
2022/06/18 02:11:25;;;;;;;8.02;4.90;;;;;;;17.16;85.35;101533.47;1053544;28;20043;-78
2022/06/18 02:11:59;;;;;;;5.60;4.60;;;;;;;16.99;85.86;101535.34;1055128;28;20040;-78
2022/06/18 02:12:33;;;;;;;4.88;3.72;;;;;;;17.04;85.40;101519.28;1059520;28;21574;-78
2022/06/18 02:13:05;;;;;;;5.82;4.53;;;;;;;16.94;85.91;101527.97;1057202;28;20047;-79
2022/06/18 02:13:41;;;;;;;5.35;4.70;;;;;;;17.06;85.88;101533.31;1052614;28;20421;-79
2022/06/18 02:14:14;;;;;;;5.20;3.60;;;;;;;16.93;85.72;101529.03;1050385;28;20040;-79
2022/06/18 02:14:50;;;;;;;7.80;3.85;;;;;;;16.95;85.99;101531.47;1050202;28;20040;-79
2022/06/18 02:15:25;;;;;;;8.02;4.07;;;;;;;17.05;85.87;101536.25;1047097;28;20048;-79
2022/06/18 02:15:59;;;;;;;4.40;3.80;;;;;;;16.93;85.53;101529.03;1045421;28;21380;-79
2022/06/18 02:16:34;;;;;;;4.47;4.07;;;;;;;16.99;85.81;101522.69;1052908;28;20035;-79
2022/06/18 02:17:09;;;;;;;6.07;4.38;;;;;;;16.90;85.62;101524.13;1052964;28;20497;-79
2022/06/18 02:17:41;;;;;;;5.30;3.92;;;;;;;16.95;86.11;101526.09;1049567;28;20043;-79
2022/06/18 02:18:15;;;;;;;8.20;4.35;;;;;;;17.01;85.99;101530.53;1048790;28;20129;-79
2022/06/18 02:18:48;;;;;;;6.47;4.35;;;;;;;16.70;85.80;101523.75;1052764;28;20522;-79
2022/06/18 02:19:22;;;;;;;4.82;4.32;;;;;;;16.82;86.15;101532.59;1055875;28;20061;-79
2022/06/18 02:19:58;;;;;;;6.80;4.38;;;;;;;16.85;85.63;101534.81;1052768;28;20040;-79
2022/06/18 02:20:51;;;;;;;4.93;4.50;;;;;;;16.95;86.06;101528.78;1052136;28;20083;-79
2022/06/18 02:21:24;;;;;;;6.93;4.90;;;;;;;16.98;85.94;101529.13;1050518;28;20412;-79
2022/06/18 02:21:56;;;;;;;7.03;4.78;;;;;;;17.10;85.73;101526.38;1051550;28;20186;-79
2022/06/18 02:22:34;;;;;;;6.22;5.07;;;;;;;16.96;86.31;101525.84;1051240;28;20036;-79
2022/06/18 02:23:06;;;;;;;7.25;4.00;;;;;;;17.04;86.66;101534.59;1048921;28;20036;-79
2022/06/18 02:23:38;;;;;;;5.90;4.63;;;;;;;16.87;86.48;101527.31;1051633;28;20040;-79
2022/06/18 02:24:10;;;;;;;5.13;4.68;;;;;;;16.84;86.74;101525.09;1052906;28;20533;-79
2022/06/18 02:24:42;;;;;;;5.55;4.90;;;;;;;16.85;87.20;101526.72;1052967;28;20059;-79
2022/06/18 02:25:18;;;;;;;5.43;4.47;;;;;;;17.03;87.00;101523.03;1056150;28;20162;-79
2022/06/18 02:25:51;;;;;;;7.20;4.40;;;;;;;16.68;86.96;101525.84;1048481;28;20037;-79
2022/06/18 02:26:25;;;;;;;7.68;4.60;;;;;;;16.73;87.51;101531.34;1051590;28;20055;-79
2022/06/18 02:26:58;;;;;;;6.07;4.70;;;;;;;17.01;87.47;101519.75;1049858;28;20064;-79
2022/06/18 02:27:29;;;;;;;4.82;4.35;;;;;;;16.94;86.91;101530.66;1044206;28;20041;-79
2022/06/18 02:28:22;;;;;;;5.82;4.80;;;;;;;16.99;86.83;101532.66;1045244;28;20052;-79
2022/06/18 02:28:55;;;;;;;6.20;4.72;;;;;;;17.15;86.68;101529.16;1049876;28;20093;-79
2022/06/18 02:29:28;;;;;;;6.95;4.85;;;;;;;16.89;86.66;101511.72;1051262;28;20493;-79
2022/06/18 02:30:00;;;;;;;10.90;5.10;;;;;;;17.07;86.98;101518.78;1056735;28;20043;-79
2022/06/18 02:30:35;;;;;;;9.00;5.00;;;;;;;17.16;86.21;101517.31;1052052;28;20036;-79
2022/06/18 02:31:14;;;;;;;4.78;4.38;;;;;;;17.24;86.05;101524.16;1052881;28;20483;-79
2022/06/18 02:31:47;;;;;;;5.70;4.65;;;;;;;17.00;86.50;101515.44;1051558;28;20516;-79
2022/06/18 02:32:23;;;;;;;6.30;4.28;;;;;;;17.11;86.27;101519.13;1057568;28;20039;-79
2022/06/18 02:33:13;;;;;;;6.60;4.75;;;;;;;17.10;86.31;101517.47;1057878;28;20381;-79
2022/06/18 02:33:45;;;;;;;6.93;4.50;;;;;;;17.11;86.31;101524.50;1051488;28;20036;-79
2022/06/18 02:34:20;;;;;;;13.80;5.03;;;;;;;17.17;86.25;101523.53;1055447;28;20039;-79
2022/06/18 02:34:51;;;;;;;5.25;4.78;;;;;;;17.16;86.08;101521.88;1051492;28;20620;-79
2022/06/18 02:35:28;;;;;;;7.18;4.78;;;;;;;16.99;86.66;101521.88;1052874;28;20048;-79
2022/06/18 02:36:24;;;;;;;8.57;5.00;;;;;;;17.09;86.39;101518.53;1047599;28;20086;-79
2022/06/18 02:36:56;;;;;;;9.73;5.05;;;;;;;17.10;86.14;101528.25;1049245;28;20550;-79
2022/06/18 02:37:30;;;;;;;6.90;4.93;;;;;;;17.20;86.37;101521.16;1046470;28;20539;-79
2022/06/18 02:38:10;;;;;;;15.35;5.07;;;;;;;17.18;85.88;101519.78;1051308;28;20047;-79
2022/06/18 02:38:43;;;;;;;6.07;4.75;;;;;;;17.28;85.57;101525.34;1047416;28;20043;-79
2022/06/18 02:39:22;;;;;;;5.55;5.05;;;;;;;17.38;85.45;101525.50;1051271;28;20040;-79
2022/06/18 02:40:00;;;;;;;8.73;5.05;;;;;;;17.15;85.77;101523.75;1061656;27;20034;-79
2022/06/18 02:40:32;;;;;;;14.40;4.65;;;;;;;17.28;85.38;101520.78;1059614;27;20042;-79
2022/06/18 02:41:04;;;;;;;6.25;5.05;;;;;;;17.10;85.68;101525.56;1060298;27;20038;-79
2022/06/18 02:41:38;;;;;;;6.13;4.80;;;;;;;16.93;85.97;101529.03;1060794;27;20050;-79
2022/06/18 02:42:14;;;;;;;6.28;5.18;;;;;;;17.06;85.92;101527.09;1057404;27;20126;-79
2022/06/18 02:42:47;;;;;;;7.65;4.43;;;;;;;17.21;85.82;101530.06;1057578;27;20098;-79
2022/06/18 02:43:20;;;;;;;6.55;5.13;;;;;;;17.10;85.92;101526.38;1056649;28;20489;-79
2022/06/18 02:43:52;;;;;;;8.27;4.65;;;;;;;16.91;86.11;101530.31;1049799;28;20104;-79
2022/06/18 02:44:24;;;;;;;6.65;5.18;;;;;;;17.08;86.58;101530.38;1052156;28;20048;-79
2022/06/18 02:44:56;;;;;;;7.50;5.10;;;;;;;17.10;86.43;101528.25;1052914;28;20036;-79
2022/06/18 02:45:29;;;;;;;9.88;5.15;;;;;;;17.18;86.32;101525.97;1049078;28;20115;-79
2022/06/18 02:46:03;;;;;;;11.65;4.88;;;;;;;17.19;85.74;101532.97;1048251;28;20036;-79
2022/06/18 02:46:35;;;;;;;7.68;5.22;;;;;;;17.28;86.57;101530.72;1048157;28;20043;-79
2022/06/18 02:47:08;;;;;;;6.63;5.68;;;;;;;17.23;86.37;101527.94;1047999;28;20040;-79
2022/06/18 02:47:40;;;;;;;10.85;5.63;;;;;;;17.25;86.46;101525.81;1049353;28;20049;-79
2022/06/18 02:48:12;;;;;;;10.30;5.57;;;;;;;17.21;86.12;101530.06;1050087;28;20037;-79
2022/06/18 02:48:45;;;;;;;5.38;4.60;;;;;;;17.31;85.77;101535.63;1054382;27;20078;-79
2022/06/18 02:49:16;;;;;;;5.63;4.70;;;;;;;17.27;85.37;101529.09;1065161;27;20461;-79
2022/06/18 02:49:53;;;;;;;5.03;4.63;;;;;;;17.34;85.00;101531.63;1056614;28;20153;-79
2022/06/18 02:50:31;;;;;;;6.88;4.95;;;;;;;17.33;85.05;101533.50;1055920;28;20036;-79
2022/06/18 02:51:03;;;;;;;11.00;4.60;;;;;;;17.40;84.83;101528.75;1052244;28;20441;-79
2022/06/18 02:51:36;;;;;;;8.23;5.45;;;;;;;17.41;84.52;101525.00;1054303;28;20032;-79
2022/06/18 02:52:08;;;;;;;5.70;5.20;;;;;;;17.26;84.84;101524.78;1057548;27;20043;-79
2022/06/18 02:52:49;;;;;;;6.95;5.10;;;;;;;17.33;84.75;101522.72;1051335;28;20060;-79
2022/06/18 02:53:24;;;;;;;5.63;5.00;;;;;;;17.25;84.70;101531.19;1044148;28;20045;-79